createdAt,value
2023-04-28T00:01:13.885Z,100741.06
2023-04-28T00:04:03.331Z,100736.98
2023-04-28T00:06:29.769Z,100735.04
2023-04-28T00:09:06.849Z,100737.2
2023-04-28T00:11:34.649Z,100735.66
2023-04-28T00:14:01.700Z,100740.27
2023-04-28T00:16:30.094Z,100742.38
2023-04-28T00:19:00.756Z,100742.89
2023-04-28T00:22:10.245Z,100738.97
2023-04-28T00:24:31.626Z,100740.3
2023-04-28T00:27:11.728Z,100743.94
2023-04-28T00:29:38.850Z,100743.72
2023-04-28T00:32:13.930Z,100746.22
2023-04-28T00:34:42.686Z,100744.28
2023-04-28T00:37:12.070Z,100746.9
2023-04-28T00:39:39.247Z,100745.49
2023-04-28T00:42:10.171Z,100747.56
2023-04-28T00:44:43.105Z,100751.89
2023-04-28T00:47:05.227Z,100750.89
2023-04-28T00:49:47.127Z,100751.06
2023-04-28T00:52:13.607Z,100750.38
2023-04-28T00:55:15.978Z,100756.48
2023-04-28T00:57:58.867Z,100752.81
2023-04-28T01:00:25.905Z,100753.67
2023-04-28T01:03:00.395Z,100755.35
2023-04-28T01:05:34.169Z,100755.77
2023-04-28T01:11:29.044Z,100760.13
2023-04-28T01:14:03.551Z,100756.3
2023-04-28T01:16:48.200Z,100754.63
2023-04-28T01:19:12.330Z,100759.25
2023-04-28T01:22:08.685Z,100762.48
2023-04-28T01:24:48.187Z,100761.51
2023-04-28T01:27:19.953Z,100763.95
2023-04-28T01:29:47.664Z,100762.77
2023-04-28T01:32:27.976Z,100762.07
2023-04-28T01:34:59.385Z,100759.61
2023-04-28T01:37:18.688Z,100760.44
2023-04-28T01:39:46.031Z,100763.26
2023-04-28T01:42:15.429Z,100762.02
2023-04-28T01:44:33.526Z,100759.69
2023-04-28T01:46:53.565Z,100760.95
2023-04-28T01:49:24.749Z,100761.52
2023-04-28T01:51:44.191Z,100767.89
2023-04-28T01:54:09.931Z,100765.78
2023-04-28T01:56:31.830Z,100767.84
2023-04-28T01:59:04.568Z,100766
2023-04-28T02:01:40.261Z,100762.28
2023-04-28T02:04:03.598Z,100766.77
2023-04-28T02:06:20.548Z,100759.95
2023-04-28T02:08:50.171Z,100763.61
2023-04-28T02:11:26.865Z,100765.25
2023-04-28T02:14:00.882Z,100761.42
2023-04-28T02:16:33.987Z,100761.73
2023-04-28T02:19:08.682Z,100762.09
2023-04-28T02:21:38.387Z,100760.56
2023-04-28T02:24:09.504Z,100758
2023-04-28T02:26:57.982Z,100760.06
2023-04-28T02:29:21.458Z,100762.13
2023-04-28T02:32:25.570Z,100762.53
2023-04-28T02:34:52.645Z,100761.36
2023-04-28T02:37:33.040Z,100758.69
2023-04-28T02:39:59.531Z,100761.64
2023-04-28T02:42:29.979Z,100757.95
2023-04-28T02:45:13.703Z,100766.55
2023-04-28T02:50:51.613Z,100766.34
2023-04-28T02:53:50.425Z,100770.34
2023-04-28T02:59:19.989Z,100767.9
2023-04-28T03:02:47.514Z,100767.63
2023-04-28T03:05:36.187Z,100771.3
2023-04-28T03:08:24.049Z,100775.06
2023-04-28T03:10:57.226Z,100773.57
2023-04-28T03:13:44.708Z,100778.05
2023-04-28T03:16:40.183Z,100773.68
2023-04-28T03:19:04.077Z,100777.73
2023-04-28T03:22:21.508Z,100778.78
2023-04-28T03:25:01.787Z,100776.66
2023-04-28T03:27:29.927Z,100776.78
2023-04-28T03:30:26.648Z,100783.65
2023-04-28T03:33:01.308Z,100785.08
2023-04-28T03:38:37.167Z,100786.81
2023-04-28T03:41:06.969Z,100785.06
2023-04-28T03:43:54.488Z,100782.77
2023-04-28T03:46:57.111Z,100784.5
2023-04-28T03:49:39.027Z,100789.63
2023-04-28T03:52:22.486Z,100786.13
2023-04-28T03:58:44.062Z,100789.03
2023-04-28T04:01:26.262Z,100790.34
2023-04-28T04:04:25.064Z,100790.12
2023-04-28T04:07:10.861Z,100787.58
2023-04-28T04:09:32.499Z,100795.91
2023-04-28T04:12:32.376Z,100803.2
2023-04-28T04:15:13.765Z,100806.59
2023-04-28T04:17:57.585Z,100806.65
2023-04-28T04:20:51.560Z,100806.38
2023-04-28T04:23:33.662Z,100806.95
2023-04-28T04:26:35.826Z,100804.52
2023-04-28T04:38:30.600Z,100820.95
2023-04-28T04:41:15.810Z,100816.17
2023-04-28T04:44:08.298Z,100813.19
2023-04-28T04:47:06.479Z,100821.34
2023-04-28T04:50:02.865Z,100815.35
2023-04-28T04:55:15.746Z,100816.45
2023-04-28T04:57:51.360Z,100812.89
2023-04-28T05:00:21.200Z,100816.81
2023-04-28T05:02:54.787Z,100817.21
2023-04-28T05:05:26.481Z,100818.31
2023-04-28T05:08:01.144Z,100817.36
2023-04-28T05:10:30.162Z,100820.19
2023-04-28T05:12:52.760Z,100818.91
2023-04-28T05:15:11.440Z,100816.88
2023-04-28T05:17:33.851Z,100820.05
2023-04-28T05:19:58.982Z,100818.5
2023-04-28T05:22:22.406Z,100823.13
2023-04-28T05:24:43.244Z,100817.03
2023-04-28T05:27:14.243Z,100813.3
2023-04-28T05:29:35.945Z,100806.65
2023-04-28T05:32:01.691Z,100805.58
2023-04-28T05:34:18.707Z,100795.34
2023-04-28T05:36:38.538Z,100793.08
2023-04-28T05:38:55.239Z,100790.74
2023-04-28T05:41:11.320Z,100788.82
2023-04-28T05:43:27.970Z,100783.14
2023-04-28T05:45:45.901Z,100785.48
2023-04-28T05:48:07.649Z,100789.64
2023-04-28T05:50:32.905Z,100785.06
2023-04-28T05:52:46.876Z,100789
2023-04-28T05:54:57.759Z,100790.3
2023-04-28T05:57:13.023Z,100791.61
2023-04-28T05:59:28.460Z,100789.41
2023-04-28T06:01:43.394Z,100790.27
2023-04-28T06:04:15.434Z,100790.41
2023-04-28T06:06:41.020Z,100793.39
2023-04-28T06:08:59.761Z,100794.83
2023-04-28T06:11:17.439Z,100795.58
2023-04-28T06:13:37.222Z,100794.33
2023-04-28T06:16:05.324Z,100791.95
2023-04-28T06:18:19.919Z,100798.2
2023-04-28T06:20:40.963Z,100793.84
2023-04-28T06:23:01.680Z,100792.27
2023-04-28T06:25:20.410Z,100793.84
2023-04-28T06:27:47.981Z,100798.7
2023-04-28T06:30:13.688Z,100796.92
2023-04-28T06:32:33.097Z,100793.63
2023-04-28T06:35:05.232Z,100796.79
2023-04-28T06:37:22.399Z,100792.34
2023-04-28T06:39:32.773Z,100791.64
2023-04-28T06:41:43.239Z,100787.09
2023-04-28T06:44:03.043Z,100787.78
2023-04-28T06:46:14.978Z,100788.1
2023-04-28T06:48:27.589Z,100792.72
2023-04-28T06:50:41.751Z,100792.37
2023-04-28T06:53:15.708Z,100793.42
2023-04-28T06:55:40.827Z,100793.29
2023-04-28T06:57:53.617Z,100793
2023-04-28T07:00:14.538Z,100788.39
2023-04-28T07:02:25.753Z,100785.91
2023-04-28T07:04:36.321Z,100787.88
2023-04-28T07:06:47.660Z,100785.98
2023-04-28T07:08:59.567Z,100789.64
2023-04-28T07:11:11.320Z,100789.27
2023-04-28T07:13:25.127Z,100791.02
2023-04-28T07:15:37.838Z,100788.81
2023-04-28T07:17:50.655Z,100783.59
2023-04-28T07:20:11.990Z,100779.79
2023-04-28T07:22:26.458Z,100782.78
2023-04-28T07:24:39.545Z,100774.17
2023-04-28T07:26:52.463Z,100772.17
2023-04-28T07:29:05.890Z,100773.06
2023-04-28T07:31:18.838Z,100773.45
2023-04-28T07:33:31.627Z,100770.8
2023-04-28T07:35:48.229Z,100769.77
2023-04-28T07:38:03.143Z,100771.24
2023-04-28T07:40:19.439Z,100772.14
2023-04-28T07:42:37.062Z,100767.52
2023-04-28T07:45:00.343Z,100768.72
2023-04-28T07:47:15.040Z,100766.44
2023-04-28T07:49:25.563Z,100768.09
2023-04-28T07:51:40.909Z,100765.86
2023-04-28T07:53:53.830Z,100769.06
2023-04-28T07:56:10.102Z,100768.42
2023-04-28T07:58:20.374Z,100771.61
2023-04-28T08:00:30.879Z,100772.66
2023-04-28T08:02:45.264Z,100759.98
2023-04-28T08:05:01.242Z,100763.77
2023-04-28T08:07:12.456Z,100758.71
2023-04-28T08:09:22.999Z,100757.48
2023-04-28T08:11:33.060Z,100755.48
2023-04-28T08:13:43.296Z,100751.63
2023-04-28T08:15:55.125Z,100753.02
2023-04-28T08:18:05.863Z,100753.06
2023-04-28T08:20:16.259Z,100759.55
2023-04-28T08:22:31.783Z,100755.5
2023-04-28T08:24:44.316Z,100757.45
2023-04-28T08:26:55.844Z,100751.55
2023-04-28T08:29:09.929Z,100749.26
2023-04-28T08:31:22.237Z,100746.67
2023-04-28T08:33:32.889Z,100739.8
2023-04-28T08:35:45.224Z,100734.29
2023-04-28T08:37:55.910Z,100728.59
2023-04-28T08:40:07.181Z,100726.13
2023-04-28T08:42:20.848Z,100725.8
2023-04-28T08:44:32.103Z,100719.3
2023-04-28T08:46:50.292Z,100726.9
2023-04-28T08:49:04.616Z,100729.69
2023-04-28T08:51:14.800Z,100728.77
2023-04-28T08:53:25.681Z,100730.38
2023-04-28T08:55:39.196Z,100727.39
2023-04-28T08:57:53.156Z,100726.83
2023-04-28T09:00:04.540Z,100717.69
2023-04-28T09:02:16.399Z,100718.69
2023-04-28T09:04:28.302Z,100721.97
2023-04-28T09:06:39.465Z,100717.49
2023-04-28T09:08:50.773Z,100717.86
2023-04-28T09:11:03.234Z,100722.86
2023-04-28T09:13:15.855Z,100718.91
2023-04-28T09:15:27.403Z,100725.11
2023-04-28T09:17:42.973Z,100720.09
2023-04-28T09:19:54.061Z,100717.27
2023-04-28T09:22:38.984Z,100716.78
2023-04-28T09:24:54.714Z,100713.13
2023-04-28T09:27:10.406Z,100713.2
2023-04-28T09:29:25.318Z,100715.45
2023-04-28T09:31:43.208Z,100712.58
2023-04-28T09:34:03.030Z,100709.09
2023-04-28T09:36:16.558Z,100712.04
2023-04-28T09:38:29.910Z,100707.45
2023-04-28T09:40:41.913Z,100706.7
2023-04-28T09:42:54.051Z,100702.3
2023-04-28T09:45:29.919Z,100702.22
2023-04-28T09:47:41.663Z,100702.97
2023-04-28T09:49:53.305Z,100697.53
2023-04-28T09:52:04.357Z,100695.97
2023-04-28T09:54:21.674Z,100694.36
2023-04-28T09:56:33.745Z,100688.1
2023-04-28T09:58:45.428Z,100687.75
2023-04-28T10:00:57.144Z,100683.27
2023-04-28T10:03:09.532Z,100681.33
2023-04-28T10:05:21.399Z,100674.3
2023-04-28T10:07:32.707Z,100672.7
2023-04-28T10:09:43.270Z,100669.84
2023-04-28T10:11:55.409Z,100669.75
2023-04-28T10:14:07.705Z,100664.58
2023-04-28T10:16:18.251Z,100662.93
2023-04-28T10:18:30.159Z,100664.09
2023-04-28T10:20:43.742Z,100660.58
2023-04-28T10:22:54.924Z,100658.69
2023-04-28T10:25:07.865Z,100655.94
2023-04-28T10:27:19.042Z,100655.92
2023-04-28T10:29:30.223Z,100651.83
2023-04-28T10:31:41.888Z,100652.36
2023-04-28T10:33:53.141Z,100653.48
2023-04-28T10:36:02.862Z,100651.95
2023-04-28T10:38:13.330Z,100649.84
2023-04-28T10:40:24.924Z,100648.3
2023-04-28T10:42:35.262Z,100648.03
2023-04-28T10:44:46.562Z,100648.78
2023-04-28T10:47:05.790Z,100650.26
2023-04-28T10:49:19.184Z,100645.98
2023-04-28T10:51:32.925Z,100642.94
2023-04-28T10:53:43.724Z,100642.68
2023-04-28T10:55:54.850Z,100635.16
2023-04-28T10:58:04.687Z,100638.09
2023-04-28T11:00:15.034Z,100630.59
2023-04-28T11:02:26.426Z,100629.98
2023-04-28T11:04:37.813Z,100627.83
2023-04-28T11:06:51.716Z,100626.94
2023-04-28T11:09:04.695Z,100628.85
2023-04-28T11:11:15.230Z,100617.99
2023-04-28T11:13:28.037Z,100619.61
2023-04-28T11:15:40.189Z,100618.45
2023-04-28T11:17:51.474Z,100615.16
2023-04-28T11:20:04.831Z,100609.84
2023-04-28T11:22:14.858Z,100601.12
2023-04-28T11:24:25.060Z,100599.52
2023-04-28T11:26:35.978Z,100594.38
2023-04-28T11:28:47.656Z,100592.69
2023-04-28T11:31:00.348Z,100595.5
2023-04-28T11:33:22.870Z,100602.51
2023-04-28T11:35:40.592Z,100608.05
2023-04-28T11:37:54.289Z,100599.04
2023-04-28T11:40:09.149Z,100599.34
2023-04-28T11:42:30.279Z,100596.19
2023-04-28T11:44:42.962Z,100598.16
2023-04-28T11:46:53.646Z,100595.71
2023-04-28T11:49:05.167Z,100597.21
2023-04-28T11:51:15.203Z,100598.45
2023-04-28T11:53:33.354Z,100593.91
2023-04-28T11:56:16.222Z,100586.94
2023-04-28T11:58:41.273Z,100588.42
2023-04-28T12:00:54.885Z,100588.72
2023-04-28T12:03:13.808Z,100589.95
2023-04-28T12:05:38.800Z,100590.52
2023-04-28T12:07:54.683Z,100586.67
2023-04-28T12:10:08.099Z,100582.21
2023-04-28T12:12:40.511Z,100579.1
2023-04-28T12:15:09.328Z,100577.73
2023-04-28T12:17:26.950Z,100576.51
2023-04-28T12:19:38.575Z,100569.16
2023-04-28T12:22:08.781Z,100572.47
2023-04-28T12:24:21.334Z,100566.34
2023-04-28T12:26:32.091Z,100561.69
2023-04-28T12:28:44.871Z,100556.77
2023-04-28T12:30:55.935Z,100552.97
2023-04-28T12:33:05.679Z,100550.09
2023-04-28T12:35:17.661Z,100551.7
2023-04-28T12:37:26.903Z,100540.05
2023-04-28T12:39:39.857Z,100538.48
2023-04-28T12:41:51.325Z,100536.66
2023-04-28T12:44:05.353Z,100536.25
2023-04-28T12:46:17.668Z,100535.67
2023-04-28T12:48:33.872Z,100533.39
2023-04-28T12:50:49.182Z,100532.09
2023-04-28T12:53:05.829Z,100526.66
2023-04-28T12:55:18.969Z,100525.73
2023-04-28T12:57:31.144Z,100526.47
2023-04-28T12:59:45.947Z,100524.64
2023-04-28T13:01:58.419Z,100512.98
2023-04-28T13:04:10.337Z,100515.86
2023-04-28T13:06:22.477Z,100516.91
2023-04-28T13:08:43.764Z,100516.63
2023-04-28T13:11:34.227Z,100505.66
2023-04-28T13:14:06.068Z,100507.36
2023-04-28T13:16:30.227Z,100507.59
2023-04-28T13:22:03.824Z,100502.05
2023-04-28T13:24:23.360Z,100495.64
2023-04-28T13:26:51.677Z,100495.2
2023-04-28T13:29:15.941Z,100492.5
2023-04-28T13:32:08.883Z,100493.13
2023-04-28T13:37:45.386Z,100492.34
2023-04-28T13:40:34.401Z,100491.88
2023-04-28T13:43:09.902Z,100487.56
2023-04-28T13:45:39.401Z,100486.7
2023-04-28T13:48:02.473Z,100484.64
2023-04-28T13:50:30.334Z,100475.88
2023-04-28T13:52:52.411Z,100472.2
2023-04-28T13:55:12.312Z,100468.52
2023-04-28T13:57:28.099Z,100464
2023-04-28T13:59:54.061Z,100459.92
2023-04-28T14:02:20.152Z,100464.06
2023-04-28T14:05:00.656Z,100463.02
2023-04-28T14:07:16.669Z,100464.28
2023-04-28T14:09:32.985Z,100459.41
2023-04-28T14:11:48.675Z,100461.63
2023-04-28T14:14:16.332Z,100455.33
2023-04-28T14:16:28.974Z,100454.73
2023-04-28T14:18:46.690Z,100451.86
2023-04-28T14:21:11.590Z,100448.16
2023-04-28T14:23:28.409Z,100447.08
2023-04-28T14:25:40.870Z,100446.3
2023-04-28T14:28:06.169Z,100442.46
2023-04-28T14:30:22.831Z,100444.89
2023-04-28T14:32:48.410Z,100440.13
2023-04-28T14:35:09.473Z,100438.67
2023-04-28T14:37:27.033Z,100437.77
2023-04-28T14:39:47.132Z,100432.36
2023-04-28T14:42:18.735Z,100426.98
2023-04-28T14:44:31.736Z,100422.3
2023-04-28T14:50:00.741Z,100417.81
2023-04-28T14:52:14.207Z,100415.02
2023-04-28T14:54:31.261Z,100417.05
2023-04-28T14:56:44.775Z,100416.8
2023-04-28T14:58:56.381Z,100412.66
2023-04-28T15:01:08.730Z,100408.68
2023-04-28T15:03:29.153Z,100411.38
2023-04-28T15:05:42.472Z,100410.88
2023-04-28T15:08:01.655Z,100410.22
2023-04-28T15:10:15.836Z,100402.09
2023-04-28T15:12:29.745Z,100401.28
2023-04-28T15:14:41.843Z,100400.14
2023-04-28T15:17:01.215Z,100400.88
2023-04-28T15:19:14.657Z,100399.68
2023-04-28T15:21:31.391Z,100395.63
2023-04-28T15:23:44.893Z,100396.06
2023-04-28T15:25:57.713Z,100391.74
2023-04-28T15:28:09.479Z,100389.97
2023-04-28T15:30:26.315Z,100391.65
2023-04-28T15:32:41.510Z,100390.3
2023-04-28T15:34:55.317Z,100389.66
2023-04-28T15:37:09.432Z,100390.92
2023-04-28T15:39:23.576Z,100387.97
2023-04-28T15:41:34.363Z,100381.64
2023-04-28T15:43:46.083Z,100385.65
2023-04-28T15:45:56.697Z,100381.2
2023-04-28T15:48:08.029Z,100380.86
2023-04-28T15:50:22.095Z,100378.71
2023-04-28T15:52:38.261Z,100383.83
2023-04-28T15:54:52.143Z,100379.83
2023-04-28T15:57:04.143Z,100381.38
2023-04-28T15:59:16.095Z,100381.52
2023-04-28T16:01:27.825Z,100379.94
2023-04-28T16:03:48.580Z,100380.11
2023-04-28T16:06:12.016Z,100375.92
2023-04-28T16:08:26.493Z,100376.01
2023-04-28T16:10:43.838Z,100377.88
2023-04-28T16:12:56.932Z,100370.63
2023-04-28T16:15:10.535Z,100368.2
2023-04-28T16:17:24.214Z,100367.86
2023-04-28T16:19:40.202Z,100365.35
2023-04-28T16:21:52.622Z,100366.56
2023-04-28T16:24:04.180Z,100366.56
2023-04-28T16:26:16.299Z,100365.61
2023-04-28T16:31:32.176Z,100363.89
2023-04-28T16:33:45.694Z,100364.33
2023-04-28T16:35:57.917Z,100367.81
2023-04-28T16:38:09.756Z,100363.34
2023-04-28T16:40:30.473Z,100361.38
2023-04-28T16:42:42.699Z,100360.7
2023-04-28T16:44:56.860Z,100358.47
2023-04-28T16:47:16.769Z,100357.78
2023-04-28T16:49:29.899Z,100355.89
2023-04-28T16:51:41.983Z,100355.45
2023-04-28T16:53:56.751Z,100345.86
2023-04-28T16:56:14.296Z,100350.63
2023-04-28T16:58:33.564Z,100345
2023-04-28T17:00:49.265Z,100345.31
2023-04-28T17:03:13.329Z,100348.59
2023-04-28T17:05:37.577Z,100346.2
2023-04-28T17:07:52.799Z,100343
2023-04-28T17:10:07.455Z,100347.38
2023-04-28T17:12:26.296Z,100345.77
2023-04-28T17:14:42.635Z,100341.95
2023-04-28T17:16:56.667Z,100346.19
2023-04-28T17:19:09.095Z,100343.52
2023-04-28T17:21:24.877Z,100342.98
2023-04-28T17:23:42.151Z,100340.45
2023-04-28T17:25:57.557Z,100342.06
2023-04-28T17:28:15.238Z,100341.25
2023-04-28T17:30:37.594Z,100340.63
2023-04-28T17:32:57.472Z,100341.2
2023-04-28T17:35:13.540Z,100343.14
2023-04-28T17:37:33.739Z,100341.9
2023-04-28T17:39:48.607Z,100341.55
2023-04-28T17:42:02.943Z,100339.13
2023-04-28T17:44:17.701Z,100340.48
2023-04-28T17:46:30.215Z,100336.8
2023-04-28T17:48:43.596Z,100338.63
2023-04-28T17:50:57.761Z,100339.27
2023-04-28T17:53:11.827Z,100332.3
2023-04-28T17:55:24.684Z,100332.79
2023-04-28T17:57:41.354Z,100334.56
2023-04-28T18:00:09.042Z,100335.31
2023-04-28T18:02:24.539Z,100332.55
2023-04-28T18:04:42.104Z,100332.24
2023-04-28T18:06:56.881Z,100329.5
2023-04-28T18:09:23.811Z,100328.23
2023-04-28T18:11:49.682Z,100336.42
2023-04-28T18:14:03.319Z,100333.05
2023-04-28T18:16:20.388Z,100336.2
2023-04-28T18:18:38.901Z,100334.05
2023-04-28T18:20:57.780Z,100334.08
2023-04-28T18:23:12.350Z,100335.31
2023-04-28T18:25:26.341Z,100334.03
2023-04-28T18:27:42.958Z,100330.7
2023-04-28T18:30:02.109Z,100332.51
2023-04-28T18:32:18.151Z,100335.96
2023-04-28T18:34:33.444Z,100335.7
2023-04-28T18:36:46.918Z,100337.83
2023-04-28T18:39:04.981Z,100334.97
2023-04-28T18:41:27.236Z,100335.06
2023-04-28T18:43:53.053Z,100334.65
2023-04-28T18:46:06.300Z,100337.73
2023-04-28T18:48:20.763Z,100335
2023-04-28T18:50:45.580Z,100332.14
2023-04-28T18:53:07.399Z,100334.77
2023-04-28T18:55:27.680Z,100332.97
2023-04-28T18:57:44.661Z,100332.77
2023-04-28T18:59:59.206Z,100335.19
2023-04-28T19:02:26.596Z,100334.36
2023-04-28T19:04:42.108Z,100334.45
2023-04-28T19:07:06.636Z,100335.63
2023-04-28T19:09:24.122Z,100334.88
2023-04-28T19:11:39.248Z,100337.91
2023-04-28T19:13:51.443Z,100337.2
2023-04-28T19:16:11.158Z,100336.66
2023-04-28T19:18:27.223Z,100336.48
2023-04-28T19:20:42.310Z,100334.69
2023-04-28T19:22:59.257Z,100331.22
2023-04-28T19:25:17.217Z,100331.45
2023-04-28T19:27:38.017Z,100332.13
2023-04-28T19:29:51.890Z,100330.85
2023-04-28T19:32:10.678Z,100332.22
2023-04-28T19:34:28.242Z,100331.48
2023-04-28T19:36:49.555Z,100331.72
2023-04-28T19:39:09.902Z,100331.48
2023-04-28T19:41:23.465Z,100336.84
2023-04-28T19:43:40.526Z,100335.27
2023-04-28T19:45:56.599Z,100330.2
2023-04-28T19:48:12.300Z,100330.77
2023-04-28T19:50:27.379Z,100329.83
2023-04-28T19:52:53.957Z,100328.13
2023-04-28T19:55:07.681Z,100327.31
2023-04-28T19:57:22.935Z,100329.72
2023-04-28T19:59:37.642Z,100329.64
2023-04-28T20:01:53.857Z,100337.53
2023-04-28T20:04:12.941Z,100336.55
2023-04-28T20:06:28.538Z,100339.05
2023-04-28T20:11:31.846Z,100331.92
2023-04-28T20:13:47.706Z,100337.88
2023-04-28T20:16:07.698Z,100337.46
2023-04-28T20:18:45.292Z,100336.45
2023-04-28T20:20:59.400Z,100336.52
2023-04-28T20:23:20.162Z,100333.84
2023-04-28T20:25:35.402Z,100340.53
2023-04-28T20:27:54.062Z,100340.72
2023-04-28T20:30:10.834Z,100343.27
2023-04-28T20:32:29.072Z,100339.27
2023-04-28T20:34:44.700Z,100343.83
2023-04-28T20:36:59.043Z,100339.99
2023-04-28T20:39:11.918Z,100347.55
2023-04-28T20:41:31.904Z,100339.73
2023-04-28T20:43:44.761Z,100341.28
2023-04-28T20:46:02.601Z,100340.2
2023-04-28T20:48:16.700Z,100338.16
2023-04-28T20:50:30.541Z,100337.78
2023-04-28T20:52:45.363Z,100338.8
2023-04-28T20:54:58.260Z,100335.8
2023-04-28T20:57:15.299Z,100334.43
2023-04-28T20:59:27.486Z,100335.88
2023-04-28T21:01:42.554Z,100336.34
2023-04-28T21:03:54.931Z,100338.97
2023-04-28T21:06:06.286Z,100332.34
2023-04-28T21:08:24.126Z,100331.94
2023-04-28T21:10:36.545Z,100332.21
2023-04-28T21:12:48.051Z,100331.14
2023-04-28T21:15:02.142Z,100327.41
2023-04-28T21:17:20.003Z,100325.6
2023-04-28T21:19:32.984Z,100331.11
2023-04-28T21:21:45.543Z,100321.5
2023-04-28T21:23:58.461Z,100324.45
2023-04-28T21:26:13.266Z,100325.73
2023-04-28T21:28:26.921Z,100325.5
2023-04-28T21:30:42.982Z,100326.31
2023-04-28T21:32:54.073Z,100320.37
2023-04-28T21:35:07.189Z,100324.17
2023-04-28T21:37:18.647Z,100326.83
2023-04-28T21:39:29.004Z,100324.77
2023-04-28T21:41:42.202Z,100322.97
2023-04-28T21:43:55.187Z,100325.42
2023-04-28T21:46:08.100Z,100326.17
2023-04-28T21:48:23.901Z,100326.67
2023-04-28T21:50:38.686Z,100328.2
2023-04-28T21:52:51.723Z,100329.23
2023-04-28T21:55:03.592Z,100325.69
2023-04-28T21:57:19.553Z,100328.14
2023-04-28T21:59:35.386Z,100328.61
2023-04-28T22:01:47.925Z,100324.33
2023-04-28T22:04:00.263Z,100322.8
2023-04-28T22:06:12.963Z,100322.62
2023-04-28T22:08:25.147Z,100321.66
2023-04-28T22:10:37.162Z,100325.69
2023-04-28T22:12:48.607Z,100320.31
2023-04-28T22:15:00.741Z,100325.76
2023-04-28T22:17:12.382Z,100326.23
2023-04-28T22:19:23.042Z,100324.22
2023-04-28T22:21:33.801Z,100323.92
2023-04-28T22:23:47.588Z,100321.48
2023-04-28T22:26:01.983Z,100326.33
2023-04-28T22:28:13.443Z,100323.47
2023-04-28T22:30:27.664Z,100326.41
2023-04-28T22:32:39.096Z,100320.3
2023-04-28T22:34:50.663Z,100319.24
2023-04-28T22:37:03.166Z,100323.8
2023-04-28T22:39:18.963Z,100315.14
2023-04-28T22:41:32.727Z,100316.08
2023-04-28T22:43:52.822Z,100319.93
2023-04-28T22:46:03.571Z,100315.2
2023-04-28T22:48:18.500Z,100319.75
2023-04-28T22:50:30.707Z,100312.5
2023-04-28T22:52:41.763Z,100313.89
2023-04-28T22:54:55.458Z,100310.41
2023-04-28T22:57:08.918Z,100308.43
2023-04-28T22:59:20.464Z,100310.17
2023-04-28T23:01:32.061Z,100311.31
2023-04-28T23:03:43.507Z,100308.7
2023-04-28T23:05:55.026Z,100307.61
2023-04-28T23:08:08.378Z,100308.64
2023-04-28T23:10:23.027Z,100306.98
2023-04-28T23:12:37.838Z,100306.5
2023-04-28T23:14:50.939Z,100307.88
2023-04-28T23:17:03.097Z,100304.45
2023-04-28T23:19:14.582Z,100302.55
2023-04-28T23:21:27.241Z,100301.12
2023-04-28T23:23:38.299Z,100292.66
2023-04-28T23:25:48.877Z,100292.92
2023-04-28T23:27:59.178Z,100292.28
2023-04-28T23:30:09.439Z,100291.27
2023-04-28T23:32:21.270Z,100293.73
2023-04-28T23:34:32.177Z,100291.45
2023-04-28T23:36:45.262Z,100288.61
2023-04-28T23:39:04.404Z,100282.09
2023-04-28T23:41:15.020Z,100283.13
2023-04-28T23:43:28.003Z,100280.3
2023-04-28T23:45:40.424Z,100272.28
2023-04-28T23:47:51.953Z,100269.67
2023-04-28T23:50:04.399Z,100270.8
2023-04-28T23:52:18.252Z,100266.33
2023-04-28T23:54:29.580Z,100267.88
2023-04-28T23:56:41.436Z,100272.52
2023-04-28T23:58:52.197Z,100265.7
